Time;durP1;ratioP1;P1;durP2;ratioP2;P2;SDS_P1;SDS_P2;PMS_P1;PMS_P2;Temp;Humidity;BMP_temperature;BMP_pressure;BME280_temperature;BME280_humidity;BME280_pressure;Samples;Min_cycle;Max_cycle;Signal;HPM_P1;HPM_P2
2021/01/27 00:00:43;;;;;;;52.10;26.52;;;;;;;0.27;88.18;99374.50;1594372;89;21282;-70
2021/01/27 00:03:09;;;;;;;53.50;26.57;;;;;;;0.20;88.33;99383.18;1594215;89;22943;-69
2021/01/27 00:05:41;;;;;;;49.13;24.67;;;;;;;0.23;88.44;99379.06;1562742;91;21088;-70
2021/01/27 00:08:06;;;;;;;51.60;25.02;;;;;;;0.25;88.50;99381.11;1622394;88;21624;-69
2021/01/27 00:10:33;;;;;;;49.37;24.93;;;;;;;0.27;88.65;99383.11;1622553;87;21683;-70
2021/01/27 00:12:58;;;;;;;49.93;24.63;;;;;;;0.24;88.81;99372.94;1623289;88;21213;-70
2021/01/27 00:15:29;;;;;;;59.33;28.10;;;;;;;0.19;88.97;99369.86;1620113;88;21991;-69
2021/01/27 00:17:55;;;;;;;62.93;30.48;;;;;;;0.24;89.14;99385.92;1617646;88;21246;-68
2021/01/27 00:20:22;;;;;;;58.70;27.77;;;;;;;0.27;89.25;99383.11;1621930;86;21195;-69
2021/01/27 00:22:48;;;;;;;58.70;27.45;;;;;;;0.24;89.36;99377.32;1620135;86;25256;-69
2021/01/27 00:25:15;;;;;;;64.80;30.73;;;;;;;0.30;89.48;99375.10;1620104;86;21041;-69
2021/01/27 00:27:40;;;;;;;61.68;27.82;;;;;;;0.22;89.72;99412.48;1621844;86;21185;-69
2021/01/27 00:30:14;;;;;;;61.93;29.47;;;;;;;0.26;89.95;99384.52;1621660;86;24718;-69
2021/01/27 00:32:40;;;;;;;60.92;29.32;;;;;;;0.21;90.18;99380.13;1619216;87;21646;-69
2021/01/27 00:35:07;;;;;;;58.27;28.47;;;;;;;0.22;90.35;99374.83;1621939;87;20972;-70
2021/01/27 00:37:34;;;;;;;59.67;28.38;;;;;;;0.22;90.39;99374.83;1619452;87;21273;-69
2021/01/27 00:39:59;;;;;;;57.50;28.97;;;;;;;0.24;90.48;99383.33;1622033;87;21253;-70
2021/01/27 00:42:25;;;;;;;61.33;31.73;;;;;;;0.25;90.55;99374.61;1620215;87;23305;-68
2021/01/27 00:44:51;;;;;;;59.83;30.03;;;;;;;0.30;90.50;99375.10;1622362;86;21125;-69
2021/01/27 00:47:17;;;;;;;60.17;30.67;;;;;;;0.26;90.60;99376.25;1621442;86;21002;-69
2021/01/27 00:49:42;;;;;;;63.50;30.73;;;;;;;0.24;90.85;99374.72;1622811;86;21100;-69
2021/01/27 00:52:08;;;;;;;63.33;30.80;;;;;;;0.29;90.85;99364.83;1620865;86;24467;-69
2021/01/27 00:54:34;;;;;;;58.33;30.40;;;;;;;0.27;90.90;99362.34;1620821;87;22817;-69
2021/01/27 00:56:59;;;;;;;57.53;28.67;;;;;;;0.24;90.96;99369.53;1625203;86;21923;-69
2021/01/27 00:59:25;;;;;;;60.67;31.00;;;;;;;0.33;90.84;99366.27;1644646;87;20998;-69
2021/01/27 01:01:51;;;;;;;61.97;29.13;;;;;;;0.34;90.79;99363.57;1645315;87;20998;-69
2021/01/27 01:04:16;;;;;;;69.03;33.70;;;;;;;0.29;90.77;99364.34;1644879;87;22000;-69
2021/01/27 01:06:42;;;;;;;63.73;30.97;;;;;;;0.30;91.04;99366.50;1645149;87;21069;-69
2021/01/27 01:09:08;;;;;;;63.33;30.73;;;;;;;0.30;91.13;99358.70;1644775;87;21679;-69
2021/01/27 01:11:34;;;;;;;56.83;29.83;;;;;;;0.31;91.42;99362.48;1644804;87;20962;-69
2021/01/27 01:13:59;;;;;;;65.80;32.27;;;;;;;0.30;91.86;99366.02;1645055;87;21021;-69
2021/01/27 01:16:25;;;;;;;64.23;31.93;;;;;;;0.32;92.15;99356.81;1644726;87;22994;-69
2021/01/27 01:18:51;;;;;;;65.10;32.83;;;;;;;0.33;91.86;99362.38;1644912;87;21560;-69
2021/01/27 01:21:17;;;;;;;62.80;32.80;;;;;;;0.30;91.74;99369.91;1645019;87;21645;-69
2021/01/27 01:23:42;;;;;;;58.23;30.00;;;;;;;0.32;91.83;99362.83;1645163;87;20978;-69
2021/01/27 01:26:08;;;;;;;63.93;32.17;;;;;;;0.36;91.56;99356.97;1645802;87;21018;-69
2021/01/27 01:28:34;;;;;;;57.58;29.42;;;;;;;0.42;91.47;99356.97;1645886;87;21217;-69
2021/01/27 01:31:00;;;;;;;63.93;31.03;;;;;;;0.38;91.31;99373.73;1646139;87;23316;-68
2021/01/27 01:33:30;;;;;;;58.97;30.83;;;;;;;0.32;91.43;99368.02;1645376;87;21365;-69
2021/01/27 01:35:56;;;;;;;54.38;30.10;;;;;;;0.31;91.41;99368.98;1645938;85;21206;-69
2021/01/27 01:38:22;;;;;;;57.83;30.03;;;;;;;0.38;91.32;99367.25;1645992;87;21002;-69
2021/01/27 01:40:52;;;;;;;58.77;29.90;;;;;;;0.40;91.30;99357.56;1647757;85;23858;-69
2021/01/27 01:43:24;;;;;;;58.83;30.25;;;;;;;0.43;90.98;99361.23;1646349;87;21248;-70
2021/01/27 01:46:13;;;;;;;57.70;30.37;;;;;;;0.35;91.24;99364.39;1642553;85;21595;-69
2021/01/27 01:49:03;;;;;;;61.75;31.00;;;;;;;0.37;91.21;99366.88;1646456;87;21599;-69
2021/01/27 01:51:55;;;;;;;54.85;27.58;;;;;;;0.39;91.21;99355.45;1646494;87;21243;-69
2021/01/27 01:54:32;;;;;;;60.43;29.55;;;;;;;0.35;91.32;99361.31;1645189;87;21228;-69
2021/01/27 01:57:01;;;;;;;57.70;30.27;;;;;;;0.37;91.22;99366.88;1646769;87;21673;-69
2021/01/27 01:59:28;;;;;;;56.88;30.55;;;;;;;0.44;91.28;99371.52;1625991;87;21715;-69
2021/01/27 02:02:00;;;;;;;58.58;28.62;;;;;;;0.39;91.33;99354.59;1601224;87;21269;-69
2021/01/27 02:04:29;;;;;;;58.48;30.57;;;;;;;0.36;91.24;99349.17;1624767;87;21229;-68
2021/01/27 02:06:55;;;;;;;55.50;28.60;;;;;;;0.32;91.42;99355.04;1600055;87;21294;-68
2021/01/27 02:09:20;;;;;;;56.67;30.30;;;;;;;0.37;91.49;99361.68;1629692;87;21305;-69
2021/01/27 02:12:25;;;;;;;55.30;29.13;;;;;;;0.39;91.55;99363.69;1626738;87;21449;-68
2021/01/27 02:15:32;;;;;;;59.08;30.55;;;;;;;0.35;91.72;99362.61;1627778;87;21240;-68
2021/01/27 02:18:33;;;;;;;60.33;29.12;;;;;;;0.27;91.85;99390.91;1629332;87;21239;-68
2021/01/27 02:21:22;;;;;;;54.45;28.73;;;;;;;0.29;91.92;99364.34;1627586;87;21261;-68
2021/01/27 02:23:59;;;;;;;61.23;30.48;;;;;;;0.30;91.91;99368.61;1617516;87;21284;-68
2021/01/27 02:26:37;;;;;;;57.13;28.23;;;;;;;0.31;91.93;99372.88;1629791;87;22020;-69
2021/01/27 02:29:24;;;;;;;;;;;;;;;0.35;91.88;99383.38;1629917;86;21277;-68
2021/01/27 02:32:07;;;;;;;55.73;27.82;;;;;;;0.37;91.85;99362.50;1625384;86;20317;-68
2021/01/27 02:35:07;;;;;;;55.03;30.23;;;;;;;0.40;91.58;99380.94;1628511;87;21182;-68
2021/01/27 02:37:59;;;;;;;54.93;28.47;;;;;;;0.37;91.84;99368.17;1616891;85;21177;-69
2021/01/27 02:41:05;;;;;;;54.20;28.67;;;;;;;0.31;91.78;99374.17;1626367;87;22047;-68
2021/01/27 02:43:36;;;;;;;59.30;29.92;;;;;;;0.44;91.70;99375.89;1557360;90;21714;-69
2021/01/27 02:46:19;;;;;;;54.18;29.12;;;;;;;0.37;91.65;99377.27;1616262;87;21149;-69
2021/01/27 02:48:53;;;;;;;60.63;30.72;;;;;;;0.39;91.64;99372.78;1573171;87;21220;-69
2021/01/27 02:51:33;;;;;;;55.92;29.95;;;;;;;0.39;91.58;99367.58;1628039;87;21212;-69
2021/01/27 02:54:12;;;;;;;55.88;29.27;;;;;;;0.42;91.38;99372.55;1628531;87;21435;-69
2021/01/27 02:56:42;;;;;;;52.15;28.10;;;;;;;0.46;91.10;99374.00;1604315;87;21662;-71
2021/01/27 02:59:13;;;;;;;55.70;29.20;;;;;;;0.41;91.16;99375.64;1628763;87;21228;-69
2021/01/27 03:01:56;;;;;;;53.68;28.42;;;;;;;0.35;91.26;99386.46;1626023;86;21675;-69
2021/01/27 03:04:27;;;;;;;50.25;26.33;;;;;;;0.38;91.28;99372.44;1627151;86;21740;-68
2021/01/27 03:06:53;;;;;;;51.50;25.90;;;;;;;0.40;91.19;99374.45;1625628;85;23207;-68
2021/01/27 03:09:30;;;;;;;46.43;25.67;;;;;;;0.40;91.17;99368.77;1626519;87;21044;-68
2021/01/27 03:11:56;;;;;;;48.65;24.55;;;;;;;0.48;91.02;99370.81;1624924;87;21665;-68
2021/01/27 03:14:21;;;;;;;50.20;27.10;;;;;;;0.51;90.96;99377.09;1625893;87;24884;-68
2021/01/27 03:17:01;;;;;;;50.43;27.70;;;;;;;0.46;91.06;99379.20;1625945;87;20994;-68
2021/01/27 03:19:54;;;;;;;50.58;26.48;;;;;;;0.42;91.06;99382.95;1625833;87;21337;-68
2021/01/27 03:22:23;;;;;;;50.35;26.55;;;;;;;0.50;90.87;99371.55;1554681;92;21326;-69
2021/01/27 03:25:00;;;;;;;47.03;24.87;;;;;;;0.56;90.56;99378.05;1554163;92;21305;-68
2021/01/27 03:27:31;;;;;;;50.25;25.62;;;;;;;0.55;90.46;99377.23;1586602;87;21280;-69
2021/01/27 03:29:58;;;;;;;47.23;24.90;;;;;;;0.52;90.41;99378.75;1627069;87;21192;-69
2021/01/27 03:33:03;;;;;;;51.25;25.20;;;;;;;0.53;90.39;99378.65;1626932;87;21290;-69
2021/01/27 03:35:48;;;;;;;47.98;24.98;;;;;;;0.55;90.26;99385.51;1625305;87;21275;-69
2021/01/27 03:38:22;;;;;;;46.55;24.18;;;;;;;0.56;90.21;99388.45;1628667;87;21686;-69
2021/01/27 03:40:49;;;;;;;45.30;25.25;;;;;;;0.52;90.21;99382.17;1627948;86;21228;-69
2021/01/27 03:43:31;;;;;;;43.75;22.85;;;;;;;0.56;90.20;99384.10;1602078;87;21233;-69
2021/01/27 03:46:08;;;;;;;40.52;22.85;;;;;;;0.64;89.95;99380.47;1624499;87;21456;-69
2021/01/27 03:48:45;;;;;;;43.30;23.35;;;;;;;0.60;89.70;99394.61;1626402;87;21654;-69
2021/01/27 03:51:11;;;;;;;43.73;21.65;;;;;;;0.51;90.17;99388.78;1626815;86;21212;-68
2021/01/27 03:53:37;;;;;;;44.50;23.00;;;;;;;0.53;89.95;99404.63;1626322;86;23408;-68
2021/01/27 03:56:23;;;;;;;43.43;24.07;;;;;;;0.54;89.85;99392.45;1627267;87;21627;-68
2021/01/27 03:58:49;;;;;;;42.75;21.23;;;;;;;0.58;89.80;99393.91;1629378;85;21571;-68
2021/01/27 04:01:21;;;;;;;40.87;22.77;;;;;;;0.58;89.64;99396.50;1627118;87;20975;-69
2021/01/27 04:03:48;;;;;;;36.38;21.33;;;;;;;0.57;89.57;99398.73;1626967;87;21224;-69
2021/01/27 04:06:14;;;;;;;35.88;19.12;;;;;;;0.58;89.46;99388.70;1606370;87;21209;-69
2021/01/27 04:08:40;;;;;;;33.73;20.87;;;;;;;0.57;89.27;99392.23;1627706;87;21820;-69
2021/01/27 04:11:06;;;;;;;36.33;19.53;;;;;;;0.62;89.18;99392.75;1629917;87;22202;-69
2021/01/27 04:13:32;;;;;;;35.75;18.82;;;;;;;0.65;88.87;99387.33;1627006;87;21214;-69
2021/01/27 04:15:58;;;;;;;34.70;19.25;;;;;;;0.62;88.75;99395.80;1627938;87;21260;-69
2021/01/27 04:18:24;;;;;;;38.90;20.20;;;;;;;0.65;88.57;99393.83;1627600;87;25405;-69
2021/01/27 04:20:50;;;;;;;36.85;18.85;;;;;;;0.59;88.52;99390.38;1630770;87;21252;-69
2021/01/27 04:23:16;;;;;;;32.27;17.70;;;;;;;0.62;88.48;99399.24;1629187;87;21135;-69
2021/01/27 04:25:42;;;;;;;35.45;19.85;;;;;;;0.65;88.32;99389.08;1628577;87;21185;-69
2021/01/27 04:28:07;;;;;;;31.87;17.27;;;;;;;0.57;88.30;99392.23;1629998;87;21624;-69
2021/01/27 04:30:35;;;;;;;33.90;17.90;;;;;;;0.57;88.28;99389.63;1630151;87;26879;-69
2021/01/27 04:33:07;;;;;;;34.63;17.87;;;;;;;0.55;88.51;99394.13;1630092;87;22628;-70
2021/01/27 04:35:33;;;;;;;31.57;17.55;;;;;;;0.58;88.59;99391.30;1629857;87;21228;-70
2021/01/27 04:37:59;;;;;;;32.88;18.00;;;;;;;0.56;88.76;99395.80;1628346;87;21227;-69
2021/01/27 04:40:43;;;;;;;27.93;16.67;;;;;;;0.60;88.66;99391.19;1629388;87;21218;-69
2021/01/27 04:43:34;;;;;;;29.87;16.87;;;;;;;0.55;88.51;99401.09;1628275;87;21251;-68
2021/01/27 04:46:28;;;;;;;29.95;16.62;;;;;;;0.54;88.73;99389.86;1631054;87;21177;-69
2021/01/27 04:49:06;;;;;;;32.78;16.37;;;;;;;0.51;88.78;99399.17;1629381;86;21380;-69
2021/01/27 04:51:37;;;;;;;29.60;15.68;;;;;;;0.51;88.68;99396.57;1630546;87;21173;-70
2021/01/27 04:54:40;;;;;;;31.10;15.83;;;;;;;0.54;88.79;99384.66;1601706;87;21248;-69
2021/01/27 04:57:33;;;;;;;27.42;15.55;;;;;;;0.55;88.88;99404.52;1626776;87;21229;-70
2021/01/27 05:00:24;;;;;;;29.90;15.13;;;;;;;0.52;88.89;99382.17;1637060;87;21256;-69
2021/01/27 05:03:08;;;;;;;28.57;15.38;;;;;;;0.52;89.21;99391.75;1642110;87;21907;-69
2021/01/27 05:05:34;;;;;;;28.40;15.13;;;;;;;0.51;89.18;99397.87;1642473;87;21244;-69
2021/01/27 05:08:07;;;;;;;27.95;15.45;;;;;;;0.55;89.39;99399.31;1643059;87;21224;-70
2021/01/27 05:10:48;;;;;;;24.70;13.95;;;;;;;0.50;89.39;99396.23;1615310;87;21243;-68
2021/01/27 05:13:37;;;;;;;27.13;14.73;;;;;;;0.54;89.16;99400.25;1641990;84;21678;-68
2021/01/27 05:16:17;;;;;;;28.47;14.03;;;;;;;0.51;89.29;99410.86;1643302;87;21277;-69
2021/01/27 05:18:42;;;;;;;27.25;13.48;;;;;;;0.60;89.45;99403.70;1643008;87;21236;-69
2021/01/27 05:21:45;;;;;;;24.67;13.37;;;;;;;0.48;88.96;99406.73;1643012;87;21030;-70
2021/01/27 05:24:10;;;;;;;22.55;12.68;;;;;;;0.50;89.15;99419.61;1642533;87;21199;-70
2021/01/27 05:26:42;;;;;;;24.77;13.30;;;;;;;0.44;89.42;99409.66;1642394;87;22306;-69
2021/01/27 05:29:22;;;;;;;25.55;13.72;;;;;;;0.43;89.39;99407.51;1639911;87;21224;-69
2021/01/27 05:32:05;;;;;;;22.80;12.28;;;;;;;0.41;88.96;99399.48;1642723;87;21721;-70
2021/01/27 05:34:43;;;;;;;23.60;11.25;;;;;;;0.53;88.61;99401.20;1643155;87;21679;-69
2021/01/27 05:37:21;;;;;;;;;;;;;;;0.45;88.84;99411.30;1644136;87;21264;-69
2021/01/27 05:39:48;;;;;;;25.77;12.50;;;;;;;0.38;87.95;99408.80;1642861;87;20305;-68
2021/01/27 05:42:29;;;;;;;23.55;11.50;;;;;;;0.36;88.13;99408.91;1642215;87;22028;-69
2021/01/27 05:44:58;;;;;;;19.90;10.82;;;;;;;0.38;87.82;99408.32;1637733;86;21542;-68
2021/01/27 05:47:38;;;;;;;21.42;11.12;;;;;;;0.42;87.54;99403.72;1643290;86;21724;-69
2021/01/27 05:50:17;;;;;;;22.22;11.45;;;;;;;0.41;86.79;99408.58;1642691;85;21701;-68
2021/01/27 05:52:43;;;;;;;18.77;9.78;;;;;;;0.51;86.44;99401.77;1643867;84;21595;-70
2021/01/27 05:55:10;;;;;;;19.57;10.63;;;;;;;0.48;86.12;99400.69;1642360;87;21053;-69
2021/01/27 05:57:35;;;;;;;18.45;9.23;;;;;;;0.47;85.81;99401.65;1644493;85;21753;-69
2021/01/27 06:00:26;;;;;;;21.00;10.23;;;;;;;0.43;85.70;99400.20;1633432;86;21617;-71
2021/01/27 06:02:52;;;;;;;18.42;9.93;;;;;;;0.43;85.83;99407.51;1627642;86;21227;-70
2021/01/27 06:05:22;;;;;;;19.67;9.40;;;;;;;0.50;85.79;99404.02;1624803;87;26198;-69
2021/01/27 06:07:48;;;;;;;15.13;8.63;;;;;;;0.45;85.62;99402.20;1624259;87;21591;-70
2021/01/27 06:10:25;;;;;;;17.23;8.83;;;;;;;0.38;85.37;99405.72;1624980;86;21146;-69
2021/01/27 06:12:51;;;;;;;20.25;9.15;;;;;;;0.43;85.35;99402.31;1624010;87;21669;-70
2021/01/27 06:15:29;;;;;;;16.20;8.47;;;;;;;0.40;85.32;99408.20;1624557;87;22952;-69
2021/01/27 06:17:55;;;;;;;15.80;7.75;;;;;;;0.39;84.82;99419.53;1627788;87;21291;-71
2021/01/27 06:20:30;;;;;;;15.98;7.95;;;;;;;0.42;84.33;99437.48;1596945;87;50597;-70
2021/01/27 06:23:13;;;;;;;14.55;7.50;;;;;;;0.47;84.45;99421.13;1628480;86;21248;-69
2021/01/27 06:26:14;;;;;;;13.85;7.28;;;;;;;0.47;83.79;99421.13;1625346;87;21213;-70
2021/01/27 06:29:05;;;;;;;17.02;6.85;;;;;;;0.43;83.84;99423.09;1626700;86;21193;-70
2021/01/27 06:32:06;;;;;;;14.35;7.05;;;;;;;0.46;83.47;99428.55;1626930;87;21248;-70
2021/01/27 06:34:57;;;;;;;14.28;6.70;;;;;;;0.40;83.60;99443.27;1625134;87;21267;-69
2021/01/27 06:37:34;;;;;;;13.30;6.62;;;;;;;0.43;83.43;99440.45;1625197;87;21232;-68
2021/01/27 06:40:38;;;;;;;11.38;6.05;;;;;;;0.38;83.15;99430.88;1626010;86;21273;-69
2021/01/27 06:43:26;;;;;;;14.53;6.12;;;;;;;0.42;82.80;99464.31;1626602;86;21244;-70
2021/01/27 06:46:18;;;;;;;16.82;6.70;;;;;;;0.41;82.59;99442.34;1624438;87;21209;-71
2021/01/27 06:49:21;;;;;;;11.15;5.45;;;;;;;0.40;82.54;99439.38;1624364;87;22005;-70
2021/01/27 06:52:23;;;;;;;11.83;5.40;;;;;;;0.41;81.85;99448.84;1625186;86;21311;-72
2021/01/27 06:55:03;;;;;;;15.18;6.00;;;;;;;0.46;81.48;99448.03;1626606;87;21298;-75
2021/01/27 06:58:09;;;;;;;11.22;5.47;;;;;;;0.46;81.48;99448.03;1626825;87;21590;-70
2021/01/27 07:00:52;;;;;;;11.68;5.03;;;;;;;0.44;81.08;99455.11;1637513;86;21788;-72
2021/01/27 07:03:49;;;;;;;8.75;4.78;;;;;;;0.50;80.66;99452.90;1631808;87;21281;-71
2021/01/27 07:07:02;;;;;;;12.50;5.10;;;;;;;0.55;80.27;99460.84;1646482;87;21272;-75
2021/01/27 07:09:42;;;;;;;9.50;4.65;;;;;;;0.57;80.16;99455.06;1645173;87;21244;-74
2021/01/27 07:12:32;;;;;;;8.58;4.15;;;;;;;0.54;79.62;99460.00;1646306;85;21649;-70
2021/01/27 07:15:28;;;;;;;11.40;4.67;;;;;;;0.56;79.72;99472.43;1644466;87;21569;-72
2021/01/27 07:18:08;;;;;;;10.23;4.92;;;;;;;0.51;79.53;99461.52;1645723;87;21420;-73
2021/01/27 07:20:41;;;;;;;12.00;5.50;;;;;;;0.58;79.53;99479.63;1645842;85;21239;-73
2021/01/27 07:23:28;;;;;;;10.30;5.28;;;;;;;0.66;79.75;99460.91;1645712;87;21261;-72
2021/01/27 07:26:18;;;;;;;12.07;5.10;;;;;;;0.77;78.82;99458.84;1646145;87;21232;-72
2021/01/27 07:28:55;;;;;;;11.90;5.30;;;;;;;0.67;79.44;99465.99;1646272;85;21259;-73
2021/01/27 07:31:31;;;;;;;11.78;5.87;;;;;;;0.67;79.71;99467.77;1645991;85;21249;-73
2021/01/27 07:34:19;;;;;;;;;;;;;;;0.63;80.18;99471.52;1648600;87;21232;-72
2021/01/27 07:36:53;;;;;;;10.45;5.70;;;;;;;0.69;80.19;99471.08;1645972;87;20308;-72
2021/01/27 07:39:42;;;;;;;15.00;5.92;;;;;;;0.65;80.66;99465.28;1645972;87;21149;-72
2021/01/27 07:42:36;;;;;;;11.65;5.65;;;;;;;0.61;80.50;99464.31;1646023;87;21276;-72
2021/01/27 07:45:24;;;;;;;10.68;5.72;;;;;;;0.61;80.77;99471.62;1645128;87;21216;-73
2021/01/27 07:48:04;;;;;;;12.93;5.65;;;;;;;0.64;80.76;99480.98;1646332;87;21232;-73
2021/01/27 07:50:31;;;;;;;10.90;5.42;;;;;;;0.59;80.92;99473.51;1627505;87;21204;-73
2021/01/27 07:53:28;;;;;;;11.05;5.47;;;;;;;0.65;81.00;99469.17;1646244;87;21757;-73
2021/01/27 07:55:59;;;;;;;12.70;5.70;;;;;;;0.76;80.85;99471.45;1646595;87;21583;-72
2021/01/27 07:58:46;;;;;;;10.75;5.72;;;;;;;0.68;80.88;99475.45;1640992;85;21605;-73
2021/01/27 08:01:37;;;;;;;10.43;5.10;;;;;;;0.85;80.74;99469.50;1633172;86;21251;-73
2021/01/27 08:04:46;;;;;;;9.38;4.85;;;;;;;0.66;81.27;99489.00;1628322;87;21232;-73
2021/01/27 08:07:35;;;;;;;10.00;5.15;;;;;;;0.69;81.97;99480.17;1625630;87;21245;-74
2021/01/27 08:10:25;;;;;;;12.05;4.97;;;;;;;0.71;82.32;99492.13;1626900;85;21179;-73
2021/01/27 08:12:56;;;;;;;12.82;5.40;;;;;;;0.61;82.11;99492.41;1626561;87;21686;-73
2021/01/27 08:15:30;;;;;;;11.78;5.70;;;;;;;0.61;82.92;99495.00;1628330;87;21232;-73
2021/01/27 08:18:03;;;;;;;12.98;6.28;;;;;;;0.67;83.13;99499.77;1624168;87;21201;-73
2021/01/27 08:20:36;;;;;;;12.50;6.37;;;;;;;0.65;83.27;99501.66;1625545;87;21262;-72
2021/01/27 08:23:26;;;;;;;14.73;6.92;;;;;;;0.53;84.61;99493.43;1631476;86;21141;-72
2021/01/27 08:26:04;;;;;;;15.08;7.80;;;;;;;0.56;85.03;99503.61;1629859;86;21284;-72
2021/01/27 08:28:41;;;;;;;13.60;7.58;;;;;;;0.46;87.30;99501.28;1628286;87;21240;-73
2021/01/27 08:31:13;;;;;;;17.60;8.08;;;;;;;0.43;87.99;99509.28;1630616;87;21185;-70
2021/01/27 08:33:50;;;;;;;17.73;9.35;;;;;;;0.43;87.59;99507.98;1628984;87;21217;-69
2021/01/27 08:36:30;;;;;;;21.50;10.08;;;;;;;0.34;88.72;99506.41;1627226;87;21676;-71
2021/01/27 08:39:02;;;;;;;19.45;9.60;;;;;;;0.31;89.10;99513.55;1569901;87;21361;-72
2021/01/27 08:41:56;;;;;;;18.55;10.28;;;;;;;0.39;89.03;99512.58;1625390;87;21212;-71
2021/01/27 08:44:40;;;;;;;21.68;11.78;;;;;;;0.38;89.46;99516.58;1625892;87;21248;-70
2021/01/27 08:47:26;;;;;;;20.45;9.58;;;;;;;0.33;89.89;99512.52;1628551;86;21232;-70
2021/01/27 08:50:00;;;;;;;21.57;10.45;;;;;;;0.33;89.80;99516.90;1626394;86;21220;-71
2021/01/27 08:52:31;;;;;;;23.25;11.15;;;;;;;0.22;89.99;99537.56;1624908;86;22443;-71
2021/01/27 08:54:57;;;;;;;21.57;10.90;;;;;;;0.32;90.08;99516.05;1629834;87;21241;-71
2021/01/27 08:57:37;;;;;;;22.03;10.47;;;;;;;0.32;89.85;99527.73;1629037;87;21074;-71
2021/01/27 09:00:23;;;;;;;20.43;9.90;;;;;;;0.39;89.32;99523.41;1628237;87;21351;-70
2021/01/27 09:02:59;;;;;;;17.10;9.63;;;;;;;0.41;88.83;99517.19;1621261;86;21242;-72
2021/01/27 09:05:29;;;;;;;21.00;9.35;;;;;;;0.53;89.03;99533.70;1621051;86;21286;-72
2021/01/27 09:08:13;;;;;;;19.75;9.65;;;;;;;0.47;88.39;99528.92;1620675;86;21277;-70
2021/01/27 09:10:42;;;;;;;21.20;9.48;;;;;;;0.41;88.16;99534.55;1621069;86;21275;-72
2021/01/27 09:13:39;;;;;;;19.40;9.35;;;;;;;0.52;87.72;99529.42;1619791;86;21293;-73
2021/01/27 09:16:19;;;;;;;22.30;10.30;;;;;;;0.48;87.65;99526.22;1643968;85;21253;-72
2021/01/27 09:18:57;;;;;;;18.48;9.33;;;;;;;0.47;87.71;99527.63;1623902;86;21217;-70
2021/01/27 09:21:23;;;;;;;17.60;8.10;;;;;;;0.56;87.13;99529.59;1622454;86;21717;-70
2021/01/27 09:24:02;;;;;;;17.77;9.00;;;;;;;0.62;86.82;99527.86;1621033;87;21098;-70
2021/01/27 09:26:39;;;;;;;17.35;8.70;;;;;;;0.62;86.45;99521.81;1620744;86;21677;-71
2021/01/27 09:29:17;;;;;;;22.00;8.63;;;;;;;0.59;85.87;99522.88;1624949;86;21228;-70
2021/01/27 09:31:43;;;;;;;19.35;9.20;;;;;;;0.61;85.81;99536.58;1595215;86;21910;-69
2021/01/27 09:34:31;;;;;;;15.20;8.80;;;;;;;0.62;85.70;99542.59;1621256;86;21038;-72
2021/01/27 09:37:08;;;;;;;18.17;8.18;;;;;;;0.64;85.14;99531.16;1625013;86;21734;-73
2021/01/27 09:39:36;;;;;;;21.23;8.68;;;;;;;0.65;84.43;99540.63;1623416;86;21239;-70
2021/01/27 09:42:16;;;;;;;15.20;7.45;;;;;;;0.76;84.27;99537.73;1621984;86;22387;-68
2021/01/27 09:44:42;;;;;;;16.82;7.97;;;;;;;0.68;83.58;99545.61;1623223;86;21834;-69
2021/01/27 09:47:11;;;;;;;17.33;8.00;;;;;;;0.68;83.34;99540.42;1621209;86;21002;-68
2021/01/27 09:49:49;;;;;;;12.13;6.53;;;;;;;0.65;82.43;99548.43;1621154;86;21915;-68
2021/01/27 09:52:16;;;;;;;14.70;6.72;;;;;;;0.71;82.37;99544.09;1621180;86;21233;-68
2021/01/27 09:54:43;;;;;;;11.63;6.00;;;;;;;0.74;82.24;99539.61;1621652;86;21253;-69
2021/01/27 09:57:11;;;;;;;12.73;6.15;;;;;;;0.83;81.84;99538.96;1624910;86;22593;-69
2021/01/27 09:59:37;;;;;;;12.00;6.37;;;;;;;0.87;81.54;99536.48;1621959;86;21244;-69
2021/01/27 10:02:03;;;;;;;10.85;5.15;;;;;;;0.95;81.00;99539.39;1624002;86;21694;-70
2021/01/27 10:04:35;;;;;;;13.43;5.83;;;;;;;0.98;80.50;99539.17;1628725;87;25498;-70
2021/01/27 10:07:24;;;;;;;12.88;6.17;;;;;;;1.00;80.64;99537.77;1628021;87;21170;-70
2021/01/27 10:10:01;;;;;;;13.20;6.53;;;;;;;1.03;80.58;99543.56;1627665;87;21253;-70
2021/01/27 10:12:28;;;;;;;13.75;6.22;;;;;;;0.96;80.43;99551.42;1628039;87;21261;-69
2021/01/27 10:15:17;;;;;;;13.68;6.50;;;;;;;0.99;81.02;99534.31;1628628;87;21690;-71
2021/01/27 10:17:43;;;;;;;16.95;7.42;;;;;;;0.91;80.92;99537.94;1630332;86;21193;-71
2021/01/27 10:20:28;;;;;;;17.37;8.10;;;;;;;0.94;81.12;99542.92;1629615;87;25260;-70
2021/01/27 10:23:00;;;;;;;16.23;7.60;;;;;;;0.93;81.43;99533.93;1624467;87;21268;-71
2021/01/27 10:25:40;;;;;;;16.27;7.42;;;;;;;0.98;81.35;99532.67;1629460;87;21240;-68
2021/01/27 10:28:25;;;;;;;11.43;6.67;;;;;;;1.07;80.95;99538.52;1629688;87;21260;-70
2021/01/27 10:31:01;;;;;;;16.02;7.05;;;;;;;1.04;80.77;99534.83;1629359;87;21267;-70
2021/01/27 10:33:43;;;;;;;13.40;6.55;;;;;;;1.13;80.38;99537.70;1626245;87;21272;-71
2021/01/27 10:36:40;;;;;;;12.82;6.10;;;;;;;1.06;79.94;99547.24;1629504;87;21294;-70
2021/01/27 10:39:26;;;;;;;11.35;5.95;;;;;;;1.15;80.19;99540.56;1629584;87;21477;-73
2021/01/27 10:42:10;;;;;;;12.07;5.50;;;;;;;1.17;80.18;99549.55;1628543;87;21272;-74
2021/01/27 10:44:38;;;;;;;12.60;5.53;;;;;;;1.19;79.85;99537.26;1628276;87;21248;-70
2021/01/27 10:47:15;;;;;;;12.30;5.40;;;;;;;1.10;79.59;99548.33;1628009;87;21237;-73
2021/01/27 10:49:43;;;;;;;12.90;5.40;;;;;;;1.13;79.74;99539.00;1627244;87;21268;-74
2021/01/27 10:52:24;;;;;;;9.65;5.30;;;;;;;1.06;79.60;99556.34;1627979;87;21269;-73
2021/01/27 10:55:03;;;;;;;11.73;5.20;;;;;;;1.13;79.82;99541.60;1626774;87;21243;-73
2021/01/27 10:57:28;;;;;;;9.63;5.20;;;;;;;1.13;79.71;99531.20;1627719;87;21253;-73
2021/01/27 10:59:56;;;;;;;11.07;5.23;;;;;;;1.07;79.56;99547.61;1625826;87;24262;-73
2021/01/27 11:02:22;;;;;;;10.93;5.08;;;;;;;1.02;79.60;99542.38;1623345;86;21618;-73
2021/01/27 11:04:56;;;;;;;10.38;5.50;;;;;;;1.01;79.47;99531.16;1620835;86;21713;-75
2021/01/27 11:07:22;;;;;;;11.78;5.25;;;;;;;1.13;79.83;99532.02;1592490;87;21183;-73
2021/01/27 11:09:48;;;;;;;9.65;4.65;;;;;;;1.08;79.42;99532.35;1574486;88;28777;-73
2021/01/27 11:12:14;;;;;;;12.90;5.30;;;;;;;1.11;79.11;99549.52;1624064;86;21235;-74
2021/01/27 11:14:39;;;;;;;13.30;4.70;;;;;;;1.06;78.96;99536.02;1621233;86;21082;-72
2021/01/27 11:17:05;;;;;;;10.83;5.00;;;;;;;1.13;78.89;99528.12;1623313;86;20999;-71
2021/01/27 11:19:31;;;;;;;9.30;4.77;;;;;;;1.14;78.81;99544.57;1621687;86;21014;-72
2021/01/27 11:21:56;;;;;;;10.73;5.00;;;;;;;1.20;78.63;99529.83;1621125;86;26359;-73
2021/01/27 11:24:22;;;;;;;10.10;5.23;;;;;;;1.19;78.29;99534.66;1624280;86;26787;-71
2021/01/27 11:26:48;;;;;;;11.30;4.90;;;;;;;1.27;78.65;99537.52;1621782;86;22741;-70
2021/01/27 11:29:14;;;;;;;9.30;4.80;;;;;;;1.32;78.36;99536.73;1625520;86;21047;-69
2021/01/27 11:31:39;;;;;;;10.60;4.83;;;;;;;1.42;78.00;99550.71;1621261;86;21041;-76
2021/01/27 11:34:05;;;;;;;10.30;5.00;;;;;;;1.42;77.53;99541.60;1623306;86;27808;-71
2021/01/27 11:36:31;;;;;;;10.60;4.47;;;;;;;1.36;77.42;99545.13;1621610;88;26193;-71
2021/01/27 11:38:56;;;;;;;9.97;4.93;;;;;;;1.43;77.43;99546.36;1621275;88;21434;-72
2021/01/27 11:41:23;;;;;;;10.30;4.27;;;;;;;1.23;77.24;99545.20;1622348;88;22690;-72
2021/01/27 11:43:49;;;;;;;9.43;4.77;;;;;;;1.27;77.33;99540.12;1593431;86;21973;-69
2021/01/27 11:46:18;;;;;;;10.20;4.87;;;;;;;1.37;77.55;99554.13;1622443;86;27089;-71
2021/01/27 11:48:44;;;;;;;11.28;5.08;;;;;;;1.34;77.34;99534.84;1622206;86;21247;-72
2021/01/27 11:51:10;;;;;;;11.33;5.30;;;;;;;1.32;77.62;99538.03;1623039;86;22491;-70
2021/01/27 11:53:37;;;;;;;10.70;5.40;;;;;;;1.29;77.72;99540.86;1621784;86;21277;-71
2021/01/27 11:56:04;;;;;;;10.90;4.83;;;;;;;1.30;77.60;99546.40;1623427;86;21651;-71
2021/01/27 11:58:30;;;;;;;10.18;5.28;;;;;;;1.30;77.70;99546.88;1622111;86;21256;-68
2021/01/27 12:00:59;;;;;;;8.43;4.55;;;;;;;1.42;77.42;99555.09;1624350;86;21737;-71
2021/01/27 12:03:25;;;;;;;10.72;5.10;;;;;;;1.29;77.31;99564.72;1644874;87;21928;-70
2021/01/27 12:05:51;;;;;;;10.87;5.23;;;;;;;1.31;77.36;99557.17;1645223;87;21704;-69
2021/01/27 12:08:17;;;;;;;10.13;4.93;;;;;;;1.36;77.36;99552.45;1644742;87;21823;-70